Terminal Aerodrome Forecast
Issued by NWS

Home | Current Version | Previous Version | Graphics & Text | Print | Product List | Glossary Off
Versions: 1 2 3 4 5 6 7 8 9 10 11 12 13 14 15 16 17 18 19 20 21 22 23 24 25 26 27 28 29 30 31 32

127
FTUS43 KDDC 191055 AAB
TAFHYS
TAF AMD
KHYS 191055Z 1911/2006 06004KT 3/4SM -RA BR SKC
      TEMPO 1911/1914 1SM BR BKN008
     FM191600 18011KT P6SM SCT025
     FM191900 16014G24KT P6SM BKN090=

USA.gov is the U.S. government's official web portal to all federal, state and local government web resources and services.